createdAt,value
2024-03-22T00:00:32.404Z,27.56
2024-03-22T00:01:32.393Z,27.54
2024-03-22T00:02:32.419Z,27.54
2024-03-22T00:03:32.390Z,27.53
2024-03-22T00:04:32.401Z,27.57
2024-03-22T00:05:32.393Z,27.56
2024-03-22T00:06:32.412Z,27.57
2024-03-22T00:07:32.431Z,27.54
2024-03-22T00:08:32.410Z,27.57
2024-03-22T00:09:32.410Z,27.54
2024-03-22T00:10:32.419Z,27.57
2024-03-22T00:11:32.440Z,27.56
2024-03-22T00:12:32.413Z,27.56
2024-03-22T00:13:32.407Z,27.53
2024-03-22T00:14:34.495Z,27.54
2024-03-22T00:15:32.408Z,27.59
2024-03-22T00:16:32.428Z,27.56
2024-03-22T00:17:32.465Z,27.56
2024-03-22T00:18:32.459Z,27.56
2024-03-22T00:19:32.414Z,27.57
2024-03-22T00:20:35.071Z,27.57
2024-03-22T00:21:32.440Z,27.57
2024-03-22T00:22:32.431Z,27.56
2024-03-22T00:23:32.444Z,27.54
2024-03-22T00:24:32.434Z,27.54
2024-03-22T00:25:32.448Z,27.56
2024-03-22T00:26:32.452Z,27.56
2024-03-22T00:27:32.444Z,27.57
2024-03-22T00:28:32.440Z,27.54
2024-03-22T00:29:32.439Z,27.54
2024-03-22T00:30:32.442Z,27.54
2024-03-22T00:31:32.468Z,27.53
2024-03-22T00:32:32.524Z,27.54
2024-03-22T00:33:32.450Z,27.53
2024-03-22T00:34:32.456Z,27.53
2024-03-22T00:35:32.449Z,27.53
2024-03-22T00:36:32.460Z,27.54
2024-03-22T00:37:32.455Z,27.54
2024-03-22T00:38:32.502Z,27.54
2024-03-22T00:39:32.474Z,27.53
2024-03-22T00:40:32.477Z,27.54
2024-03-22T00:41:32.478Z,27.54
2024-03-22T00:42:32.485Z,27.56
2024-03-22T00:43:32.470Z,27.53
2024-03-22T00:44:32.514Z,27.52
2024-03-22T00:45:32.498Z,27.52
2024-03-22T00:46:32.485Z,27.53
2024-03-22T00:47:32.479Z,27.52
2024-03-22T00:48:32.477Z,27.52
2024-03-22T00:49:32.469Z,27.50
2024-03-22T00:50:32.496Z,27.50
2024-03-22T00:51:32.479Z,27.48
2024-03-22T00:52:32.492Z,27.45
2024-03-22T00:53:32.509Z,27.45
2024-03-22T00:54:32.509Z,27.45
2024-03-22T00:55:32.494Z,27.41
2024-03-22T00:56:32.532Z,27.38
2024-03-22T00:57:32.492Z,27.38
2024-03-22T00:58:32.500Z,27.33
2024-03-22T00:59:32.512Z,27.35
2024-03-22T01:00:32.500Z,27.35
2024-03-22T01:01:32.524Z,27.33
2024-03-22T01:02:32.514Z,27.33
2024-03-22T01:03:32.502Z,27.32
2024-03-22T01:04:32.524Z,27.31
2024-03-22T01:05:32.541Z,27.31
2024-03-22T01:06:32.526Z,27.33
2024-03-22T01:07:32.518Z,27.36
2024-03-22T01:08:32.515Z,27.36
2024-03-22T01:09:32.514Z,27.35
2024-03-22T01:10:32.522Z,27.36
2024-03-22T01:11:32.571Z,27.36
2024-03-22T01:12:32.533Z,27.38
2024-03-22T01:13:32.532Z,27.39
2024-03-22T01:14:32.542Z,27.39
2024-03-22T01:15:32.520Z,27.39
2024-03-22T01:16:32.533Z,27.41
2024-03-22T01:17:32.536Z,27.41
2024-03-22T01:18:32.529Z,27.41
2024-03-22T01:19:32.524Z,27.39
2024-03-22T01:20:32.523Z,27.38
2024-03-22T01:21:32.527Z,27.39
2024-03-22T01:22:32.531Z,27.36
2024-03-22T01:23:32.522Z,27.33
2024-03-22T01:24:32.545Z,27.31
2024-03-22T01:25:32.563Z,27.31
2024-03-22T01:26:32.563Z,27.28
2024-03-22T01:27:32.526Z,27.28
2024-03-22T01:28:32.530Z,27.29
2024-03-22T01:29:32.554Z,27.25
2024-03-22T01:30:32.544Z,27.25
2024-03-22T01:31:32.547Z,27.26
2024-03-22T01:32:32.588Z,27.25
2024-03-22T01:33:32.536Z,27.28
2024-03-22T01:34:32.548Z,27.29
2024-03-22T01:35:32.550Z,27.29
2024-03-22T01:36:32.553Z,27.29
2024-03-22T01:37:32.543Z,27.31
2024-03-22T01:38:32.564Z,27.28
2024-03-22T01:39:32.571Z,27.29
2024-03-22T01:40:32.557Z,27.29
2024-03-22T01:41:32.628Z,27.32
2024-03-22T01:42:32.570Z,27.31
2024-03-22T01:43:32.548Z,27.32
2024-03-22T01:44:32.602Z,27.33
2024-03-22T01:45:32.575Z,27.31
2024-03-22T01:46:32.591Z,27.33
2024-03-22T01:47:32.561Z,27.33
2024-03-22T01:48:32.590Z,27.31
2024-03-22T01:49:32.569Z,27.33
2024-03-22T01:50:32.572Z,27.31
2024-03-22T01:51:32.584Z,27.32
2024-03-22T01:52:32.584Z,27.33
2024-03-22T01:53:32.573Z,27.33
2024-03-22T01:54:32.584Z,27.35
2024-03-22T01:55:32.578Z,27.36
2024-03-22T01:56:32.579Z,27.35
2024-03-22T01:57:32.590Z,27.36
2024-03-22T01:58:32.601Z,27.35
2024-03-22T01:59:32.595Z,27.38
2024-03-22T02:00:32.624Z,27.36
2024-03-22T02:01:32.615Z,27.35
2024-03-22T02:02:32.591Z,27.35
2024-03-22T02:03:32.613Z,27.33
2024-03-22T02:04:32.642Z,27.32
2024-03-22T02:05:32.613Z,27.35
2024-03-22T02:06:32.634Z,27.32
2024-03-22T02:07:32.630Z,27.33
2024-03-22T02:08:32.608Z,27.36
2024-03-22T02:09:32.635Z,27.33
2024-03-22T02:10:32.622Z,27.35
2024-03-22T02:11:32.629Z,27.33
2024-03-22T02:12:32.632Z,27.35
2024-03-22T02:13:32.622Z,27.33
2024-03-22T02:14:32.656Z,27.35
2024-03-22T02:15:32.642Z,27.33
2024-03-22T02:16:32.649Z,27.32
2024-03-22T02:17:32.675Z,27.33
2024-03-22T02:18:32.649Z,27.31
2024-03-22T02:19:32.629Z,27.31
2024-03-22T02:20:32.660Z,27.31
2024-03-22T02:21:32.653Z,27.29
2024-03-22T02:22:32.644Z,27.28
2024-03-22T02:23:32.664Z,27.32
2024-03-22T02:24:32.640Z,27.32
2024-03-22T02:25:32.656Z,27.29
2024-03-22T02:26:32.642Z,27.26
2024-03-22T02:27:32.694Z,27.31
2024-03-22T02:28:32.671Z,27.29
2024-03-22T02:29:32.722Z,27.29
2024-03-22T02:30:32.657Z,27.28
2024-03-22T02:31:32.656Z,27.31
2024-03-22T02:32:32.678Z,27.29
2024-03-22T02:33:32.691Z,27.29
2024-03-22T02:34:35.833Z,27.28
2024-03-22T02:35:32.674Z,27.28
2024-03-22T02:36:32.662Z,27.28
2024-03-22T02:37:32.775Z,27.25
2024-03-22T02:38:32.650Z,27.26
2024-03-22T02:39:32.649Z,27.26
2024-03-22T02:40:32.667Z,27.25
2024-03-22T02:41:32.658Z,27.25
2024-03-22T02:42:32.667Z,27.24
2024-03-22T02:43:32.701Z,27.26
2024-03-22T02:44:32.650Z,27.24
2024-03-22T02:45:32.667Z,27.24
2024-03-22T02:46:32.683Z,27.24
2024-03-22T02:47:32.677Z,27.22
2024-03-22T02:48:32.671Z,27.24
2024-03-22T02:49:32.676Z,27.24
2024-03-22T02:50:32.676Z,27.21
2024-03-22T02:51:32.688Z,27.22
2024-03-22T02:52:32.692Z,27.24
2024-03-22T02:53:32.686Z,27.22
2024-03-22T02:54:32.676Z,27.21
2024-03-22T02:55:32.687Z,27.21
2024-03-22T02:56:32.695Z,27.21
2024-03-22T02:57:32.686Z,27.19
2024-03-22T02:58:32.710Z,27.19
2024-03-22T02:59:32.694Z,27.18
2024-03-22T03:00:32.689Z,27.18
2024-03-22T03:01:32.726Z,27.18
2024-03-22T03:02:32.683Z,27.15
2024-03-22T03:03:32.698Z,27.18
2024-03-22T03:04:32.699Z,27.19
2024-03-22T03:05:32.707Z,27.18
2024-03-22T03:06:32.700Z,27.15
2024-03-22T03:07:32.703Z,27.16
2024-03-22T03:08:32.737Z,27.16
2024-03-22T03:09:32.716Z,27.16
2024-03-22T03:10:32.709Z,27.15
2024-03-22T03:11:32.730Z,27.16
2024-03-22T03:12:32.706Z,27.16
2024-03-22T03:13:32.724Z,27.15
2024-03-22T03:14:32.716Z,27.15
2024-03-22T03:15:32.713Z,27.15
2024-03-22T03:16:32.722Z,27.15
2024-03-22T03:17:32.716Z,27.14
2024-03-22T03:18:32.731Z,27.15
2024-03-22T03:19:32.722Z,27.12
2024-03-22T03:20:32.718Z,27.14
2024-03-22T03:21:32.732Z,27.14
2024-03-22T03:22:32.713Z,27.11
2024-03-22T03:23:32.722Z,27.08
2024-03-22T03:24:32.731Z,27.06
2024-03-22T03:25:32.726Z,27.06
2024-03-22T03:26:32.753Z,27.02
2024-03-22T03:27:32.797Z,27.06
2024-03-22T03:28:32.821Z,27.04
2024-03-22T03:29:32.871Z,27.02
2024-03-22T03:30:32.903Z,26.98
2024-03-22T03:31:32.943Z,26.98
2024-03-22T03:32:32.980Z,26.94
2024-03-22T03:33:33.028Z,26.93
2024-03-22T03:34:33.074Z,26.94
2024-03-22T03:35:33.117Z,26.87
2024-03-22T03:36:33.160Z,26.86
2024-03-22T03:37:33.202Z,26.88
2024-03-22T03:38:33.268Z,26.86
2024-03-22T03:39:33.320Z,26.81
2024-03-22T03:40:33.377Z,26.83
2024-03-22T03:41:33.425Z,26.78
2024-03-22T03:42:33.471Z,26.78
2024-03-22T03:43:33.532Z,26.76
2024-03-22T03:44:33.583Z,26.74
2024-03-22T03:45:33.650Z,26.71
2024-03-22T03:46:33.741Z,26.71
2024-03-22T03:47:33.791Z,26.71
2024-03-22T03:48:33.838Z,26.67
2024-03-22T03:49:33.922Z,26.67
2024-03-22T03:50:33.992Z,26.64
2024-03-22T03:51:34.085Z,26.64
2024-03-22T03:52:34.145Z,26.63
2024-03-22T03:53:34.213Z,26.60
2024-03-22T03:54:34.293Z,26.60
2024-03-22T03:55:34.355Z,26.61
2024-03-22T03:56:34.416Z,26.57
2024-03-22T03:57:34.478Z,26.57
2024-03-22T03:58:34.554Z,26.54
2024-03-22T03:59:34.627Z,26.52
2024-03-22T04:00:34.702Z,26.54
2024-03-22T04:01:34.767Z,26.49
2024-03-22T04:02:34.816Z,26.50
2024-03-22T04:03:34.842Z,26.47
2024-03-22T04:04:34.878Z,26.47
2024-03-22T04:05:34.946Z,26.44
2024-03-22T04:06:35.002Z,26.44
2024-03-22T04:07:35.063Z,26.44
2024-03-22T04:08:35.102Z,26.43
2024-03-22T04:09:35.195Z,26.42
2024-03-22T04:10:35.219Z,26.40
2024-03-22T04:11:35.273Z,26.40
2024-03-22T04:12:35.308Z,26.38
2024-03-22T04:13:35.352Z,26.38
2024-03-22T04:14:35.399Z,26.39
2024-03-22T04:15:35.430Z,26.38
2024-03-22T04:16:35.474Z,26.38
2024-03-22T04:17:35.512Z,26.35
2024-03-22T04:18:35.539Z,26.38
2024-03-22T04:19:35.536Z,26.33
2024-03-22T04:20:35.544Z,26.33
2024-03-22T04:21:35.561Z,26.32
2024-03-22T04:22:35.557Z,26.31
2024-03-22T04:23:35.558Z,26.31
2024-03-22T04:24:35.587Z,26.32
2024-03-22T04:25:35.574Z,26.33
2024-03-22T04:26:35.586Z,26.31
2024-03-22T04:27:35.605Z,26.32
2024-03-22T04:28:35.638Z,26.32
2024-03-22T04:29:35.642Z,26.33
2024-03-22T04:30:35.684Z,26.33
2024-03-22T04:31:35.715Z,26.35
2024-03-22T04:32:35.737Z,26.36
2024-03-22T04:33:35.805Z,26.39
2024-03-22T04:34:35.851Z,26.36
2024-03-22T04:35:35.897Z,26.39
2024-03-22T04:36:35.955Z,26.42
2024-03-22T04:37:35.990Z,26.39
2024-03-22T04:38:36.053Z,26.42
2024-03-22T04:39:43.331Z,26.39
2024-03-22T04:40:43.330Z,26.43
2024-03-22T04:41:43.341Z,26.42
2024-03-22T04:42:43.341Z,26.43
2024-03-22T04:43:43.338Z,26.44
2024-03-22T04:44:43.350Z,26.47
2024-03-22T04:45:43.354Z,26.46
2024-03-22T04:46:43.503Z,26.46
2024-03-22T04:47:43.375Z,26.47
2024-03-22T04:48:43.378Z,26.52
2024-03-22T04:49:43.333Z,26.49
2024-03-22T04:50:43.370Z,26.50
2024-03-22T04:51:43.348Z,26.50
2024-03-22T04:52:43.338Z,26.52
2024-03-22T04:53:45.989Z,26.52
2024-03-22T04:54:43.368Z,26.49
2024-03-22T04:55:43.364Z,26.53
2024-03-22T04:56:43.409Z,26.53
2024-03-22T04:57:43.355Z,26.53
2024-03-22T04:58:43.346Z,26.53
2024-03-22T04:59:43.361Z,26.50
2024-03-22T05:00:43.354Z,26.52
2024-03-22T05:01:43.355Z,26.53
2024-03-22T05:02:43.372Z,26.52
2024-03-22T05:03:43.348Z,26.54
2024-03-22T05:04:43.359Z,26.53
2024-03-22T05:05:43.376Z,26.54
2024-03-22T05:06:43.361Z,26.53
2024-03-22T05:07:43.354Z,26.54
2024-03-22T05:08:43.371Z,26.54
2024-03-22T05:09:43.353Z,26.56
2024-03-22T05:10:43.376Z,26.54
2024-03-22T05:11:43.391Z,26.56
2024-03-22T05:12:43.361Z,26.54
2024-03-22T05:13:43.379Z,26.54
2024-03-22T05:14:43.383Z,26.54
2024-03-22T05:15:43.369Z,26.54
2024-03-22T05:16:43.368Z,26.54
2024-03-22T05:17:43.429Z,26.54
2024-03-22T05:18:43.377Z,26.56
2024-03-22T05:19:43.377Z,26.56
2024-03-22T05:20:43.379Z,26.57
2024-03-22T05:21:43.382Z,26.56
2024-03-22T05:22:43.369Z,26.57
2024-03-22T05:23:43.436Z,26.59
2024-03-22T05:24:43.364Z,26.57
2024-03-22T05:25:43.369Z,26.54
2024-03-22T05:26:43.376Z,26.59
2024-03-22T05:27:43.377Z,26.57
2024-03-22T05:28:43.381Z,26.57
2024-03-22T05:29:43.381Z,26.57
2024-03-22T05:30:43.372Z,26.57
2024-03-22T05:31:43.382Z,26.57
2024-03-22T05:32:43.399Z,26.54
2024-03-22T05:33:43.403Z,26.56
2024-03-22T05:34:43.382Z,26.59
2024-03-22T05:35:43.384Z,26.59
2024-03-22T05:36:43.394Z,26.56
2024-03-22T05:37:43.397Z,26.57
2024-03-22T05:38:43.390Z,26.54
2024-03-22T05:39:43.398Z,26.54
2024-03-22T05:40:43.414Z,26.56
2024-03-22T05:41:43.423Z,26.57
2024-03-22T05:42:43.413Z,26.57
2024-03-22T05:43:43.420Z,26.54
2024-03-22T05:44:43.438Z,26.54
2024-03-22T05:45:43.412Z,26.54
2024-03-22T05:46:43.425Z,26.53
2024-03-22T05:47:43.436Z,26.54
2024-03-22T05:48:43.432Z,26.54
2024-03-22T05:49:43.430Z,26.57
2024-03-22T05:50:43.440Z,26.54
2024-03-22T05:51:43.477Z,26.56
2024-03-22T05:52:43.531Z,26.54
2024-03-22T05:53:43.619Z,26.57
2024-03-22T05:54:43.640Z,26.56
2024-03-22T05:55:43.704Z,26.56
2024-03-22T05:56:43.797Z,26.57
2024-03-22T05:57:43.828Z,26.60
2024-03-22T05:58:43.880Z,26.56
2024-03-22T05:59:43.959Z,26.61
2024-03-22T06:00:44.044Z,26.69
2024-03-22T06:01:44.468Z,26.74
2024-03-22T06:02:44.122Z,26.81
2024-03-22T06:03:44.243Z,26.87
2024-03-22T06:04:46.782Z,26.93
2024-03-22T06:05:44.204Z,26.95
2024-03-22T06:06:44.198Z,26.98
2024-03-22T06:07:44.211Z,27.01
2024-03-22T06:08:44.238Z,27.06
2024-03-22T06:09:44.266Z,27.06
2024-03-22T06:10:44.208Z,27.09
2024-03-22T06:11:44.202Z,27.11
2024-03-22T06:12:44.205Z,27.09
2024-03-22T06:13:44.223Z,27.05
2024-03-22T06:14:44.224Z,27.06
2024-03-22T06:15:44.211Z,27.06
2024-03-22T06:16:44.210Z,27.04
2024-03-22T06:17:44.274Z,26.99
2024-03-22T06:18:44.244Z,26.97
2024-03-22T06:19:44.235Z,26.94
2024-03-22T06:20:44.219Z,26.95
2024-03-22T06:21:44.231Z,26.93
2024-03-22T06:22:44.219Z,26.90
2024-03-22T06:23:44.225Z,26.90
2024-03-22T06:24:44.227Z,26.90
2024-03-22T06:25:44.224Z,26.88
2024-03-22T06:26:46.058Z,26.87
2024-03-22T06:27:45.746Z,26.84
2024-03-22T06:28:44.297Z,26.83
2024-03-22T06:29:44.384Z,26.84
2024-03-22T06:30:44.404Z,26.83
2024-03-22T06:31:44.518Z,26.81
2024-03-22T06:32:44.534Z,26.83
2024-03-22T06:33:44.574Z,26.81
2024-03-22T06:34:44.651Z,26.84
2024-03-22T06:35:44.709Z,26.83
2024-03-22T06:36:44.794Z,26.81
2024-03-22T06:37:44.983Z,26.80
2024-03-22T06:38:44.888Z,26.78
2024-03-22T06:39:45.476Z,26.80
2024-03-22T06:40:45.164Z,26.78
2024-03-22T06:41:50.637Z,26.80
2024-03-22T06:42:45.133Z,26.77
2024-03-22T06:43:45.040Z,26.80
2024-03-22T06:44:45.345Z,26.77
2024-03-22T06:45:45.044Z,26.77
2024-03-22T06:46:45.060Z,26.77
2024-03-22T06:47:45.284Z,26.80
2024-03-22T06:48:46.125Z,26.74
2024-03-22T06:49:45.057Z,26.80
2024-03-22T06:50:45.155Z,26.81
2024-03-22T06:51:45.895Z,26.84
2024-03-22T06:52:45.280Z,26.87
2024-03-22T06:53:45.327Z,26.87
2024-03-22T06:54:45.343Z,26.87
2024-03-22T06:55:45.613Z,26.90
2024-03-22T06:56:45.403Z,26.88
2024-03-22T06:57:46.075Z,26.91
2024-03-22T06:58:45.481Z,26.90
2024-03-22T06:59:45.543Z,26.93
2024-03-22T07:00:45.532Z,26.93
2024-03-22T07:01:45.598Z,26.95
2024-03-22T07:02:45.609Z,26.95
2024-03-22T07:03:45.632Z,26.97
2024-03-22T07:04:45.671Z,26.97
2024-03-22T07:05:45.685Z,26.95
2024-03-22T07:06:47.576Z,27.01
2024-03-22T07:07:46.682Z,27.02
2024-03-22T07:08:45.701Z,27.01
2024-03-22T07:09:45.677Z,27.04
2024-03-22T07:10:45.782Z,27.06
2024-03-22T07:11:45.714Z,27.08
2024-03-22T07:12:45.709Z,27.08
2024-03-22T07:13:46.702Z,27.11
2024-03-22T07:14:45.692Z,27.11
2024-03-22T07:15:45.948Z,27.12
2024-03-22T07:16:45.744Z,27.15
2024-03-22T07:17:45.790Z,27.16
2024-03-22T07:18:45.775Z,27.22
2024-03-22T07:19:45.769Z,27.24
2024-03-22T07:20:45.819Z,27.29
2024-03-22T07:21:45.799Z,27.32
2024-03-22T07:22:45.842Z,27.35
2024-03-22T07:23:57.683Z,27.39
2024-03-22T07:24:45.857Z,27.45
2024-03-22T07:25:45.889Z,27.48
2024-03-22T07:26:45.883Z,27.49
2024-03-22T07:27:45.839Z,27.48
2024-03-22T07:28:45.831Z,27.50
2024-03-22T07:29:45.885Z,27.54
2024-03-22T07:30:45.876Z,27.54
2024-03-22T07:31:46.598Z,27.60
2024-03-22T07:32:45.897Z,27.60
2024-03-22T07:33:45.919Z,27.66
2024-03-22T07:34:45.856Z,27.70
2024-03-22T07:35:45.868Z,27.73
2024-03-22T07:36:45.916Z,27.77
2024-03-22T07:37:45.875Z,27.79
2024-03-22T07:38:45.868Z,27.83
2024-03-22T07:39:45.920Z,27.84
2024-03-22T07:40:46.538Z,27.80
2024-03-22T07:41:46.055Z,27.86
2024-03-22T07:42:46.062Z,27.90
2024-03-22T07:43:46.124Z,27.88
2024-03-22T07:44:46.190Z,27.93
2024-03-22T07:45:46.265Z,27.95
2024-03-22T07:46:46.338Z,27.98
2024-03-22T07:47:46.629Z,28.04
2024-03-22T07:48:46.477Z,28.05
2024-03-22T07:49:46.546Z,28.05
2024-03-22T07:50:46.825Z,28.05
2024-03-22T07:51:46.747Z,28.05
2024-03-22T07:52:46.754Z,28.04
2024-03-22T07:53:46.965Z,28.03
2024-03-22T07:54:47.189Z,28.00
2024-03-22T07:55:46.967Z,27.95
2024-03-22T07:56:47.000Z,27.95
2024-03-22T07:57:47.105Z,27.90
2024-03-22T07:58:46.967Z,27.91
2024-03-22T07:59:46.972Z,27.90
2024-03-22T08:00:46.961Z,27.88
2024-03-22T08:01:47.065Z,27.86
2024-03-22T08:02:46.981Z,27.84
2024-03-22T08:03:47.002Z,27.88
2024-03-22T08:04:47.032Z,27.90
2024-03-22T08:05:47.041Z,27.93
2024-03-22T08:06:47.029Z,27.94
2024-03-22T08:07:47.027Z,28.03
2024-03-22T08:08:47.077Z,28.07
2024-03-22T08:09:47.238Z,28.09
2024-03-22T08:10:47.156Z,28.15
2024-03-22T08:11:47.046Z,28.19
2024-03-22T08:12:46.984Z,28.22
2024-03-22T08:13:47.014Z,28.26
2024-03-22T08:14:47.045Z,28.29
2024-03-22T08:15:47.020Z,28.32
2024-03-22T08:16:47.016Z,28.38
2024-03-22T08:17:47.052Z,28.38
2024-03-22T08:18:47.116Z,28.42
2024-03-22T08:19:47.114Z,28.46
2024-03-22T08:20:47.167Z,28.49
2024-03-22T08:21:47.561Z,28.49
2024-03-22T08:22:47.199Z,28.45
2024-03-22T08:23:47.168Z,28.55
2024-03-22T08:24:47.797Z,28.55
2024-03-22T08:25:47.164Z,28.56
2024-03-22T08:26:47.222Z,28.59
2024-03-22T08:27:59.782Z,28.63
2024-03-22T08:28:49.165Z,28.63
2024-03-22T08:29:48.811Z,28.69
2024-03-22T08:30:48.320Z,28.62
2024-03-22T08:31:47.172Z,28.69
2024-03-22T08:32:47.122Z,28.73
2024-03-22T08:33:47.089Z,28.73
2024-03-22T08:34:47.121Z,28.71
2024-03-22T08:35:47.191Z,28.71
2024-03-22T08:36:47.134Z,28.76
2024-03-22T08:37:47.099Z,28.74
2024-03-22T08:38:47.198Z,28.76
2024-03-22T08:39:47.452Z,28.77
2024-03-22T08:40:47.198Z,28.77
2024-03-22T08:41:47.243Z,28.78
2024-03-22T08:42:47.181Z,28.80
2024-03-22T08:43:47.108Z,28.81
2024-03-22T08:44:47.165Z,28.81
2024-03-22T08:45:47.098Z,28.86
2024-03-22T08:46:47.112Z,28.81
2024-03-22T08:47:47.243Z,28.87
2024-03-22T08:48:47.107Z,28.87
2024-03-22T08:49:47.181Z,28.89
2024-03-22T08:50:47.187Z,28.91
2024-03-22T08:51:47.704Z,28.89
2024-03-22T08:52:47.139Z,28.89
2024-03-22T08:53:47.330Z,28.89
2024-03-22T08:54:47.142Z,28.89
2024-03-22T08:55:47.126Z,28.91
2024-03-22T08:56:47.153Z,28.91
2024-03-22T08:57:53.998Z,28.94
2024-03-22T08:58:48.156Z,28.94
2024-03-22T08:59:47.148Z,28.94
2024-03-22T09:00:47.151Z,28.95
2024-03-22T09:01:47.147Z,28.97
2024-03-22T09:02:47.187Z,29.00
2024-03-22T09:03:47.185Z,29.01
2024-03-22T09:04:47.156Z,29.02
2024-03-22T09:05:56.517Z,29.04
2024-03-22T09:06:48.170Z,29.04
2024-03-22T09:07:48.557Z,29.00
2024-03-22T09:08:47.193Z,29.05
2024-03-22T09:09:47.170Z,29.02
2024-03-22T09:10:47.287Z,29.05
2024-03-22T09:11:47.186Z,29.08
2024-03-22T09:12:47.208Z,29.07
2024-03-22T09:13:47.226Z,29.05
2024-03-22T09:14:47.360Z,29.02
2024-03-22T09:15:47.307Z,29.01
2024-03-22T09:16:47.343Z,29.00
2024-03-22T09:17:47.433Z,29.00
2024-03-22T09:18:47.423Z,28.95
2024-03-22T09:19:47.442Z,28.95
2024-03-22T09:20:47.507Z,28.93
2024-03-22T09:21:47.487Z,28.93
2024-03-22T09:22:47.549Z,28.86
2024-03-22T09:23:47.497Z,28.86
2024-03-22T09:24:47.526Z,28.76
2024-03-22T09:25:48.820Z,28.66
2024-03-22T09:26:47.547Z,28.59
2024-03-22T09:27:47.585Z,28.45
2024-03-22T09:28:47.684Z,28.32
2024-03-22T09:29:47.743Z,28.21
2024-03-22T09:30:56.554Z,28.08
2024-03-22T09:31:48.676Z,27.95
2024-03-22T09:32:47.658Z,27.86
2024-03-22T09:33:48.584Z,27.73
2024-03-22T09:34:47.617Z,27.61
2024-03-22T09:35:48.203Z,27.49
2024-03-22T09:36:47.656Z,27.32
2024-03-22T09:37:47.615Z,27.16
2024-03-22T09:38:47.595Z,27.04
2024-03-22T09:39:47.653Z,26.91
2024-03-22T09:40:47.624Z,26.77
2024-03-22T09:41:50.460Z,26.66
2024-03-22T09:42:47.667Z,26.56
2024-03-22T09:43:47.650Z,26.47
2024-03-22T09:44:47.648Z,26.42
2024-03-22T09:45:47.627Z,26.35
2024-03-22T09:46:47.700Z,26.32
2024-03-22T09:47:47.643Z,26.26
2024-03-22T09:48:48.567Z,26.22
2024-03-22T09:49:47.639Z,26.16
2024-03-22T09:50:47.651Z,26.12
2024-03-22T09:51:47.630Z,26.02
2024-03-22T09:52:47.701Z,25.92
2024-03-22T09:53:48.659Z,25.87
2024-03-22T09:54:47.844Z,25.88
2024-03-22T09:55:48.011Z,25.84
2024-03-22T09:56:47.946Z,25.81
2024-03-22T09:57:48.088Z,25.81
2024-03-22T09:58:48.134Z,25.83
2024-03-22T09:59:48.119Z,25.85
2024-03-22T10:00:48.110Z,25.88
2024-03-22T10:01:48.234Z,25.90
2024-03-22T10:02:48.202Z,25.91
2024-03-22T10:03:48.359Z,25.94
2024-03-22T10:04:48.235Z,25.95
2024-03-22T10:05:48.223Z,25.98
2024-03-22T10:06:48.297Z,25.99
2024-03-22T10:07:48.255Z,26.01
2024-03-22T10:08:48.239Z,25.99
2024-03-22T10:09:48.254Z,26.02
2024-03-22T10:10:48.373Z,26.04
2024-03-22T10:11:48.281Z,26.05
2024-03-22T10:12:48.230Z,26.07
2024-03-22T10:13:48.356Z,26.04
2024-03-22T10:14:48.237Z,26.04
2024-03-22T10:15:48.235Z,26.04
2024-03-22T10:16:49.078Z,26.05
2024-03-22T10:17:48.309Z,26.05
2024-03-22T10:18:48.394Z,26.02
2024-03-22T10:19:48.261Z,26.02
2024-03-22T10:20:48.298Z,26.04
2024-03-22T10:21:49.264Z,26.02
2024-03-22T10:22:48.255Z,26.02
2024-03-22T10:23:48.235Z,26.01
2024-03-22T10:24:48.244Z,25.99
2024-03-22T10:25:48.295Z,25.98
2024-03-22T10:26:48.410Z,26.01
2024-03-22T10:27:48.383Z,26.01
2024-03-22T10:28:48.327Z,25.98
2024-03-22T10:29:48.399Z,25.99
2024-03-22T10:30:48.453Z,25.98
2024-03-22T10:31:48.573Z,25.97
2024-03-22T10:32:48.442Z,25.98
2024-03-22T10:33:48.475Z,25.98
2024-03-22T10:34:48.484Z,25.95
2024-03-22T10:35:48.453Z,25.95
2024-03-22T10:36:48.483Z,25.92
2024-03-22T10:37:51.946Z,25.97
2024-03-22T10:38:48.464Z,26.04
2024-03-22T10:39:48.524Z,26.09
2024-03-22T10:40:48.463Z,26.16
2024-03-22T10:41:48.532Z,26.26
2024-03-22T10:42:48.499Z,26.36
2024-03-22T10:43:48.466Z,26.46
2024-03-22T10:44:48.538Z,26.53
2024-03-22T10:45:48.469Z,26.61
2024-03-22T10:46:48.492Z,26.70
2024-03-22T10:47:48.565Z,26.77
2024-03-22T10:48:48.523Z,26.84
2024-03-22T10:49:51.054Z,26.93
2024-03-22T10:50:48.480Z,26.97
2024-03-22T10:51:48.509Z,27.04
2024-03-22T10:52:48.460Z,27.12
2024-03-22T10:53:48.481Z,27.16
2024-03-22T10:54:48.554Z,27.25
2024-03-22T10:55:48.517Z,27.29
2024-03-22T10:56:48.500Z,27.32
2024-03-22T10:57:48.609Z,27.39
2024-03-22T10:58:48.582Z,27.43
2024-03-22T10:59:48.502Z,27.49
2024-03-22T11:00:48.521Z,27.53
2024-03-22T11:01:49.123Z,27.59
2024-03-22T11:02:48.494Z,27.60
2024-03-22T11:03:48.546Z,27.64
2024-03-22T11:04:48.507Z,27.69
2024-03-22T11:05:48.520Z,27.70
2024-03-22T11:06:48.499Z,27.76
2024-03-22T11:07:48.505Z,27.79
2024-03-22T11:08:48.500Z,27.81
2024-03-22T11:09:49.086Z,27.84
2024-03-22T11:10:48.496Z,27.87
2024-03-22T11:11:48.535Z,27.88
2024-03-22T11:12:48.546Z,27.94
2024-03-22T11:13:48.551Z,27.97
2024-03-22T11:14:50.336Z,28.00
2024-03-22T11:15:48.526Z,28.03
2024-03-22T11:16:48.617Z,28.08
2024-03-22T11:17:48.520Z,28.09
2024-03-22T11:18:48.515Z,28.14
2024-03-22T11:19:48.573Z,28.16
2024-03-22T11:20:48.534Z,28.21
2024-03-22T11:21:48.574Z,28.19
2024-03-22T11:22:48.538Z,28.23
2024-03-22T11:23:48.555Z,28.28
2024-03-22T11:24:49.141Z,28.31
2024-03-22T11:25:48.791Z,28.34
2024-03-22T11:26:48.658Z,28.34
2024-03-22T11:27:48.620Z,28.35
2024-03-22T11:28:48.645Z,28.38
2024-03-22T11:29:48.643Z,28.42
2024-03-22T11:30:48.683Z,28.43
2024-03-22T11:31:48.690Z,28.45
2024-03-22T11:32:48.713Z,28.45
2024-03-22T11:33:48.723Z,28.50
2024-03-22T11:34:48.956Z,28.49
2024-03-22T11:35:48.766Z,28.50
2024-03-22T11:36:48.796Z,28.55
2024-03-22T11:37:49.622Z,28.56
2024-03-22T11:38:48.870Z,28.59
2024-03-22T11:39:48.897Z,28.57
2024-03-22T11:40:48.872Z,28.57
2024-03-22T11:41:48.881Z,28.60
2024-03-22T11:42:48.909Z,28.62
2024-03-22T11:43:49.598Z,28.66
2024-03-22T11:44:49.052Z,28.66
2024-03-22T11:45:48.898Z,28.67
2024-03-22T11:46:48.983Z,28.69
2024-03-22T11:47:48.962Z,28.69
2024-03-22T11:48:48.923Z,28.73
2024-03-22T11:49:49.618Z,28.71
2024-03-22T11:50:48.941Z,28.71
2024-03-22T11:51:48.944Z,28.71
2024-03-22T11:52:48.927Z,28.74
2024-03-22T11:53:48.999Z,28.74
2024-03-22T11:54:48.973Z,28.76
2024-03-22T11:55:48.935Z,28.71
2024-03-22T11:56:48.961Z,28.71
2024-03-22T11:57:48.970Z,28.71
2024-03-22T11:58:48.944Z,28.69
2024-03-22T11:59:59.290Z,28.69
2024-03-22T12:01:12.090Z,28.67
2024-03-22T12:01:50.032Z,28.66
2024-03-22T12:02:49.126Z,28.66
2024-03-22T12:03:48.968Z,28.64
2024-03-22T12:04:48.970Z,28.64
2024-03-22T12:05:49.001Z,28.66
2024-03-22T12:06:48.991Z,28.64
2024-03-22T12:07:48.982Z,28.64
2024-03-22T12:08:48.981Z,28.66
2024-03-22T12:09:49.623Z,28.62
2024-03-22T12:10:48.969Z,28.63
2024-03-22T12:11:49.099Z,28.64
2024-03-22T12:12:48.971Z,28.63
2024-03-22T12:13:48.971Z,28.64
2024-03-22T12:14:49.005Z,28.62
2024-03-22T12:15:48.997Z,28.63
2024-03-22T12:16:48.989Z,28.64
2024-03-22T12:17:48.999Z,28.63
2024-03-22T12:18:49.639Z,28.63
2024-03-22T12:19:49.180Z,28.64
2024-03-22T12:20:49.184Z,28.63
2024-03-22T12:21:49.184Z,28.66
2024-03-22T12:22:49.200Z,28.66
2024-03-22T12:23:49.230Z,28.64
2024-03-22T12:24:49.216Z,28.66
2024-03-22T12:25:49.204Z,28.62
2024-03-22T12:26:49.239Z,28.64
2024-03-22T12:27:49.217Z,28.64
2024-03-22T12:28:49.233Z,28.66
2024-03-22T12:29:49.292Z,28.63
2024-03-22T12:30:49.244Z,28.62
2024-03-22T12:31:49.212Z,28.63
2024-03-22T12:32:49.226Z,28.60
2024-03-22T12:33:49.214Z,28.62
2024-03-22T12:34:49.216Z,28.60
2024-03-22T12:35:49.226Z,28.60
2024-03-22T12:36:49.276Z,28.60
2024-03-22T12:37:49.264Z,28.60
2024-03-22T12:38:49.244Z,28.62
2024-03-22T12:39:49.260Z,28.62
2024-03-22T12:40:49.220Z,28.60
2024-03-22T12:41:49.249Z,28.62
2024-03-22T12:42:49.258Z,28.60
2024-03-22T12:43:57.871Z,28.60
2024-03-22T12:44:50.275Z,28.60
2024-03-22T12:45:49.266Z,28.59
2024-03-22T12:46:49.246Z,28.60
2024-03-22T12:47:49.278Z,28.60
2024-03-22T12:48:49.265Z,28.59
2024-03-22T12:49:49.249Z,28.62
2024-03-22T12:50:49.250Z,28.62
2024-03-22T12:51:49.272Z,28.63
2024-03-22T12:52:49.261Z,28.64